createdAt,value
2022-10-15T00:01:43.856Z,43.10
2022-10-15T00:04:13.219Z,43.10
2022-10-15T00:06:41.312Z,42.90
2022-10-15T00:09:09.296Z,42.70
2022-10-15T00:11:37.482Z,42.50
2022-10-15T00:14:05.637Z,43.00
2022-10-15T00:16:34.551Z,42.90
2022-10-15T00:19:02.705Z,43.00
2022-10-15T00:21:32.205Z,43.10
2022-10-15T00:24:00.201Z,43.90
2022-10-15T00:26:30.035Z,42.20
2022-10-15T00:29:01.146Z,41.10
2022-10-15T00:31:31.710Z,42.20
2022-10-15T00:34:02.635Z,43.00
2022-10-15T00:36:35.016Z,43.90
2022-10-15T00:39:04.866Z,44.80
2022-10-15T00:41:35.853Z,45.30
2022-10-15T00:44:42.354Z,44.20
2022-10-15T00:47:18.145Z,43.20
2022-10-15T00:49:50.803Z,42.40
2022-10-15T00:52:25.206Z,43.10
2022-10-15T00:55:02.281Z,42.20
2022-10-15T00:57:33.194Z,42.40
2022-10-15T01:00:07.683Z,42.60
2022-10-15T01:02:35.785Z,42.80
2022-10-15T01:05:04.618Z,42.20
2022-10-15T01:07:33.949Z,42.90
2022-10-15T01:10:03.122Z,42.20
2022-10-15T01:12:53.009Z,42.20
2022-10-15T01:15:26.855Z,42.80
2022-10-15T01:18:00.626Z,43.10
2022-10-15T01:20:51.348Z,42.60
2022-10-15T01:24:17.461Z,43.00
2022-10-15T01:27:31.031Z,43.40
2022-10-15T01:30:30.030Z,43.20
2022-10-15T01:33:28.559Z,42.70
2022-10-15T01:36:10.196Z,43.30
2022-10-15T01:38:50.835Z,43.40
2022-10-15T01:41:27.733Z,44.00
2022-10-15T01:44:01.459Z,43.70
2022-10-15T01:46:36.754Z,43.80
2022-10-15T01:49:06.240Z,44.00
2022-10-15T01:51:38.155Z,43.90
2022-10-15T01:54:09.708Z,44.10
2022-10-15T01:56:39.873Z,44.00
2022-10-15T01:59:10.313Z,44.10
2022-10-15T02:01:44.462Z,44.80
2022-10-15T02:04:21.757Z,44.10
2022-10-15T02:06:58.307Z,44.30
2022-10-15T02:09:44.074Z,44.50
2022-10-15T02:12:31.634Z,44.60
2022-10-15T02:15:07.950Z,44.50
2022-10-15T02:17:45.987Z,44.90
2022-10-15T02:20:18.146Z,44.80
2022-10-15T02:22:51.805Z,44.90
2022-10-15T02:25:23.468Z,45.30
2022-10-15T02:27:55.294Z,44.70
2022-10-15T02:30:24.344Z,44.80
2022-10-15T02:33:00.110Z,44.90
2022-10-15T02:35:29.222Z,44.90
2022-10-15T02:38:03.574Z,45.20
2022-10-15T02:40:34.792Z,45.60
2022-10-15T02:43:07.261Z,45.10
2022-10-15T02:45:35.341Z,45.20
2022-10-15T02:48:05.395Z,45.10
2022-10-15T02:50:33.442Z,45.70
2022-10-15T02:53:01.466Z,45.60
2022-10-15T02:55:29.516Z,45.50
2022-10-15T02:57:57.572Z,45.90
2022-10-15T03:00:25.648Z,45.90
2022-10-15T03:02:53.604Z,45.60
2022-10-15T03:05:23.216Z,45.90
2022-10-15T03:07:51.261Z,45.80
2022-10-15T03:10:19.763Z,46.00
2022-10-15T03:12:47.713Z,46.40
2022-10-15T03:15:15.835Z,46.20
2022-10-15T03:17:43.876Z,46.10
2022-10-15T03:20:12.308Z,46.80
2022-10-15T03:22:41.660Z,46.70
2022-10-15T03:25:10.138Z,47.30
2022-10-15T03:27:38.784Z,47.60
2022-10-15T03:30:08.834Z,46.50
2022-10-15T03:32:36.861Z,47.90
2022-10-15T03:35:05.725Z,47.00
2022-10-15T03:37:33.728Z,46.70
2022-10-15T03:40:03.165Z,47.00
2022-10-15T03:42:31.154Z,47.10
2022-10-15T03:44:59.209Z,47.40
2022-10-15T03:47:27.213Z,47.70
2022-10-15T03:49:55.256Z,48.20
2022-10-15T03:52:23.579Z,48.50
2022-10-15T03:54:51.799Z,48.00
2022-10-15T03:57:21.190Z,47.60
2022-10-15T03:59:49.166Z,47.90
2022-10-15T04:02:17.407Z,48.60
2022-10-15T04:04:45.488Z,48.60
2022-10-15T04:07:13.535Z,48.20
2022-10-15T04:09:41.529Z,48.50
2022-10-15T04:12:09.472Z,49.40
2022-10-15T04:14:38.830Z,49.20
2022-10-15T04:17:06.930Z,48.90
2022-10-15T04:19:35.352Z,49.20
2022-10-15T04:22:04.401Z,49.00
2022-10-15T04:24:32.396Z,48.40
2022-10-15T04:27:00.440Z,48.80
2022-10-15T04:29:28.500Z,49.30
2022-10-15T04:31:58.017Z,48.40
2022-10-15T04:34:26.372Z,49.30
2022-10-15T04:36:54.346Z,48.70
2022-10-15T04:39:22.536Z,48.60
2022-10-15T04:41:50.592Z,49.10
2022-10-15T04:44:18.712Z,48.70
2022-10-15T04:46:46.647Z,48.50
2022-10-15T04:49:15.941Z,49.10
2022-10-15T04:51:43.973Z,49.40
2022-10-15T04:54:12.015Z,49.70
2022-10-15T04:56:40.059Z,49.70
2022-10-15T04:59:08.956Z,50.20
2022-10-15T05:01:36.924Z,50.20
2022-10-15T05:04:05.475Z,50.30
2022-10-15T05:06:35.155Z,50.20
2022-10-15T05:09:03.113Z,50.30
2022-10-15T05:11:31.339Z,50.60
2022-10-15T05:13:59.975Z,50.60
2022-10-15T05:16:29.953Z,50.30
2022-10-15T05:19:00.705Z,50.50
2022-10-15T05:21:31.093Z,50.30
2022-10-15T05:24:01.155Z,50.60
2022-10-15T05:26:30.724Z,50.10
2022-10-15T05:29:00.739Z,50.80
2022-10-15T05:31:31.089Z,50.90
2022-10-15T05:33:59.372Z,50.70
2022-10-15T05:36:30.432Z,50.60
2022-10-15T05:39:01.884Z,50.50
2022-10-15T05:41:31.009Z,50.40
2022-10-15T05:43:59.955Z,50.40
2022-10-15T05:46:28.044Z,50.10
2022-10-15T05:48:58.750Z,50.20
2022-10-15T05:51:28.086Z,50.40
2022-10-15T05:53:57.699Z,50.60
2022-10-15T05:56:27.863Z,50.30
2022-10-15T05:58:56.353Z,50.40
2022-10-15T06:01:24.390Z,50.10
2022-10-15T06:03:52.671Z,50.20
2022-10-15T06:06:23.234Z,50.20
2022-10-15T06:08:52.704Z,50.20
2022-10-15T06:11:21.187Z,50.00
2022-10-15T06:13:50.501Z,50.20
2022-10-15T06:16:22.815Z,50.20
2022-10-15T06:18:53.615Z,50.10
2022-10-15T06:21:22.122Z,50.00
2022-10-15T06:23:50.120Z,50.30
2022-10-15T06:26:18.278Z,49.70
2022-10-15T06:28:46.408Z,49.80
2022-10-15T06:31:15.792Z,49.90
2022-10-15T06:33:43.751Z,49.40
2022-10-15T06:36:13.529Z,49.30
2022-10-15T06:38:43.934Z,50.20
2022-10-15T06:41:12.293Z,49.70
2022-10-15T06:43:40.395Z,49.40
2022-10-15T06:46:08.409Z,49.70
2022-10-15T06:48:37.727Z,49.80
2022-10-15T06:51:06.425Z,50.00
2022-10-15T06:53:35.240Z,49.70
2022-10-15T06:56:05.308Z,49.80
2022-10-15T06:58:33.301Z,49.80
2022-10-15T07:01:02.419Z,49.70
2022-10-15T07:03:30.792Z,50.10
2022-10-15T07:06:04.295Z,46.40
2022-10-15T07:08:32.381Z,43.80
2022-10-15T07:11:02.992Z,44.20
2022-10-15T07:13:31.288Z,43.90
2022-10-15T07:15:59.241Z,44.50
2022-10-15T07:18:27.184Z,44.50
2022-10-15T07:20:55.156Z,45.50
2022-10-15T07:23:27.725Z,45.00
2022-10-15T07:25:58.085Z,43.80
2022-10-15T07:28:26.739Z,45.40
2022-10-15T07:30:54.729Z,44.50
2022-10-15T07:33:22.692Z,43.60
2022-10-15T07:35:50.689Z,44.00
2022-10-15T07:38:18.877Z,43.70
2022-10-15T07:40:48.248Z,43.60
2022-10-15T07:43:16.893Z,43.40
2022-10-15T07:45:50.232Z,42.50
2022-10-15T07:48:18.290Z,42.30
2022-10-15T07:50:46.284Z,42.40
2022-10-15T07:53:15.363Z,42.40
2022-10-15T07:55:45.035Z,42.20
2022-10-15T07:58:14.411Z,42.30
2022-10-15T08:00:42.588Z,41.80
2022-10-15T08:03:10.750Z,41.80
2022-10-15T08:05:38.693Z,41.50
2022-10-15T08:08:06.667Z,42.40
2022-10-15T08:10:34.692Z,42.00
2022-10-15T08:13:02.655Z,42.20
2022-10-15T08:15:31.921Z,42.40
2022-10-15T08:18:00.925Z,42.30
2022-10-15T08:20:28.951Z,41.90
2022-10-15T08:22:56.901Z,42.00
2022-10-15T08:25:24.906Z,41.90
2022-10-15T08:27:54.499Z,42.00
2022-10-15T08:30:22.714Z,41.80
2022-10-15T08:32:52.039Z,41.80
2022-10-15T08:35:20.062Z,41.90
2022-10-15T08:37:48.003Z,42.30
2022-10-15T08:40:17.290Z,42.50
2022-10-15T08:42:47.905Z,42.10
2022-10-15T08:45:23.174Z,41.70
2022-10-15T08:47:58.581Z,41.10
2022-10-15T08:50:37.192Z,41.60
2022-10-15T08:53:05.462Z,41.50
2022-10-15T08:55:39.981Z,41.20
2022-10-15T08:58:15.911Z,41.20
2022-10-15T09:00:49.192Z,40.90
2022-10-15T09:03:34.661Z,41.70
2022-10-15T09:06:11.587Z,41.70
2022-10-15T09:08:49.401Z,42.30
2022-10-15T09:11:24.756Z,42.70
2022-10-15T09:13:53.512Z,42.50
2022-10-15T09:16:25.349Z,42.90
2022-10-15T09:18:55.373Z,43.00
2022-10-15T09:21:26.305Z,43.30
2022-10-15T09:23:57.844Z,43.70
2022-10-15T09:26:30.603Z,43.60
2022-10-15T09:29:08.377Z,42.90
2022-10-15T09:31:43.458Z,43.10
2022-10-15T09:34:23.866Z,42.70
2022-10-15T09:36:56.389Z,42.90
2022-10-15T09:39:41.414Z,43.20
2022-10-15T09:42:26.143Z,42.60
2022-10-15T09:44:55.826Z,42.50
2022-10-15T09:47:27.460Z,42.10
2022-10-15T09:49:56.792Z,41.90
2022-10-15T09:52:48.560Z,41.70
2022-10-15T09:55:35.839Z,41.50
2022-10-15T09:58:11.969Z,41.40
2022-10-15T10:01:00.749Z,41.40
2022-10-15T10:03:31.613Z,41.20
2022-10-15T10:06:10.681Z,41.30
2022-10-15T10:08:42.553Z,40.50
2022-10-15T10:11:12.772Z,40.90
2022-10-15T10:13:46.695Z,41.20
2022-10-15T10:16:16.950Z,41.10
2022-10-15T10:18:50.850Z,41.00
2022-10-15T10:21:32.503Z,40.80
2022-10-15T10:24:28.443Z,40.70
2022-10-15T10:26:57.176Z,40.50
2022-10-15T10:29:33.956Z,40.40
2022-10-15T10:32:13.174Z,40.50
2022-10-15T10:34:48.766Z,40.20
2022-10-15T10:37:21.533Z,40.20
2022-10-15T10:39:54.829Z,40.50
2022-10-15T10:42:38.107Z,40.10
2022-10-15T10:45:23.022Z,40.50
2022-10-15T10:47:51.473Z,40.10
2022-10-15T10:50:33.225Z,40.30
2022-10-15T10:53:25.237Z,40.60
2022-10-15T10:55:54.938Z,40.50
2022-10-15T10:58:27.145Z,40.30
2022-10-15T11:00:56.349Z,40.50
2022-10-15T11:03:36.026Z,40.50
2022-10-15T11:06:25.698Z,40.40
2022-10-15T11:09:12.406Z,40.40
2022-10-15T11:11:53.084Z,39.80
2022-10-15T11:14:33.302Z,39.70
2022-10-15T11:17:10.430Z,40.00
2022-10-15T11:22:57.366Z,39.50
2022-10-15T11:25:37.314Z,39.70
2022-10-15T11:28:23.152Z,39.70
2022-10-15T11:30:59.828Z,39.80
2022-10-15T11:33:46.742Z,39.50
2022-10-15T11:36:33.911Z,39.60
2022-10-15T11:39:20.017Z,39.60
2022-10-15T11:42:00.624Z,39.50
2022-10-15T11:44:49.327Z,39.50
2022-10-15T11:47:33.077Z,39.60
2022-10-15T11:50:16.944Z,39.80
2022-10-15T11:53:01.218Z,39.10
2022-10-15T11:55:37.574Z,39.50
2022-10-15T11:58:13.145Z,39.70
2022-10-15T12:00:46.677Z,40.40
2022-10-15T12:03:19.049Z,39.80
2022-10-15T12:05:51.679Z,39.20
2022-10-15T12:08:20.971Z,39.60
2022-10-15T12:11:05.750Z,39.80
2022-10-15T12:13:42.122Z,39.70
2022-10-15T12:16:24.122Z,40.60
2022-10-15T12:19:03.956Z,39.60
2022-10-15T12:21:36.262Z,39.50
2022-10-15T12:24:10.449Z,39.50
2022-10-15T12:26:38.760Z,39.50
2022-10-15T12:29:23.028Z,39.30
2022-10-15T12:31:52.949Z,39.10
2022-10-15T12:34:31.913Z,38.70
2022-10-15T12:37:14.829Z,39.30
2022-10-15T12:39:52.203Z,39.20
2022-10-15T12:42:27.460Z,39.00
2022-10-15T12:44:59.150Z,39.20
2022-10-15T12:47:50.473Z,39.20
2022-10-15T12:50:22.457Z,39.30
2022-10-15T12:53:00.570Z,39.10
2022-10-15T12:55:35.057Z,39.10
2022-10-15T12:58:06.738Z,38.90
2022-10-15T13:00:54.109Z,38.60
2022-10-15T13:03:35.792Z,38.70
2022-10-15T13:06:32.612Z,38.60
2022-10-15T13:09:16.710Z,38.60
2022-10-15T13:11:49.212Z,38.50
2022-10-15T13:14:31.356Z,38.30
2022-10-15T13:17:04.706Z,38.50
2022-10-15T13:19:38.477Z,38.30
2022-10-15T13:22:21.779Z,38.00
2022-10-15T13:24:49.926Z,38.20
2022-10-15T13:27:27.010Z,38.20
2022-10-15T13:29:58.468Z,38.00
2022-10-15T13:32:31.037Z,38.40
2022-10-15T13:34:59.998Z,38.00
2022-10-15T13:37:33.682Z,37.30
2022-10-15T13:40:07.587Z,37.90
2022-10-15T13:42:36.875Z,38.00
2022-10-15T13:45:17.305Z,38.00
2022-10-15T13:47:52.072Z,38.10
2022-10-15T13:50:24.033Z,38.20
2022-10-15T13:52:57.813Z,38.00
2022-10-15T13:55:28.851Z,38.20
2022-10-15T13:58:02.071Z,38.10
2022-10-15T14:00:33.977Z,38.00
2022-10-15T14:03:18.209Z,38.10
2022-10-15T14:05:48.612Z,38.00
2022-10-15T14:08:24.807Z,38.00
2022-10-15T14:10:55.373Z,38.30
2022-10-15T14:13:23.445Z,37.80
2022-10-15T14:16:14.526Z,37.20
2022-10-15T14:18:49.283Z,37.50
2022-10-15T14:21:20.321Z,37.20
2022-10-15T14:23:50.525Z,37.30
2022-10-15T14:26:25.682Z,37.40
2022-10-15T14:28:55.862Z,36.50
2022-10-15T14:31:34.223Z,36.70
2022-10-15T14:34:03.763Z,36.60
2022-10-15T14:36:42.348Z,36.90
2022-10-15T14:39:30.643Z,37.10
2022-10-15T14:42:01.144Z,37.20
2022-10-15T14:44:43.352Z,36.90
2022-10-15T14:47:21.361Z,37.20
2022-10-15T14:49:53.802Z,37.80
2022-10-15T14:52:22.803Z,36.40
2022-10-15T14:55:02.830Z,37.30
2022-10-15T14:57:35.981Z,37.00
2022-10-15T15:00:08.209Z,37.30
2022-10-15T15:02:36.262Z,37.40
2022-10-15T15:05:20.341Z,37.40
2022-10-15T15:07:48.916Z,38.40
2022-10-15T15:10:17.753Z,37.70
2022-10-15T15:12:50.796Z,37.70
2022-10-15T15:15:22.361Z,38.10
2022-10-15T15:17:51.219Z,37.60
2022-10-15T15:20:22.172Z,38.00
2022-10-15T15:22:54.289Z,37.70
2022-10-15T15:25:29.460Z,37.00
2022-10-15T15:27:57.795Z,37.90
2022-10-15T15:30:28.212Z,38.00
2022-10-15T15:32:56.281Z,37.50
2022-10-15T15:35:31.628Z,38.00
2022-10-15T15:37:59.766Z,38.00
2022-10-15T15:40:27.902Z,38.00
2022-10-15T15:42:56.511Z,37.50
2022-10-15T15:45:27.100Z,37.60
2022-10-15T15:47:58.496Z,38.00
2022-10-15T15:50:27.864Z,37.80
2022-10-15T15:52:55.859Z,38.30
2022-10-15T15:55:24.647Z,38.40
2022-10-15T15:57:52.730Z,38.50
2022-10-15T16:00:20.847Z,37.90
2022-10-15T16:02:48.940Z,38.30
2022-10-15T16:05:18.005Z,38.30
2022-10-15T16:07:47.340Z,38.00
2022-10-15T16:10:15.492Z,38.50
2022-10-15T16:12:44.079Z,38.20
2022-10-15T16:15:14.680Z,38.00
2022-10-15T16:17:44.017Z,38.50
2022-10-15T16:20:12.812Z,38.00
2022-10-15T16:22:40.917Z,38.20
2022-10-15T16:25:11.245Z,38.10
2022-10-15T16:27:39.332Z,38.60
2022-10-15T16:30:08.547Z,38.20
2022-10-15T16:32:36.566Z,38.50
2022-10-15T16:35:04.993Z,38.70
2022-10-15T16:37:32.996Z,38.90
2022-10-15T16:40:00.974Z,38.80
2022-10-15T16:42:30.350Z,38.50
2022-10-15T16:44:58.370Z,38.80
2022-10-15T16:47:27.062Z,38.50
2022-10-15T16:49:56.020Z,38.50
2022-10-15T16:52:24.325Z,38.90
2022-10-15T16:54:52.616Z,38.70
2022-10-15T16:57:20.668Z,38.80
2022-10-15T16:59:50.017Z,38.60
2022-10-15T17:02:18.181Z,39.00
2022-10-15T17:04:46.712Z,39.40
2022-10-15T17:07:14.720Z,38.70
2022-10-15T17:09:44.785Z,39.20
2022-10-15T17:12:12.990Z,39.00
2022-10-15T17:14:41.088Z,39.00
2022-10-15T17:17:10.447Z,39.00
2022-10-15T17:19:38.585Z,39.20
2022-10-15T17:22:06.683Z,39.50
2022-10-15T17:24:34.810Z,38.90
2022-10-15T17:27:02.882Z,39.50
2022-10-15T17:29:33.488Z,39.10
2022-10-15T17:32:02.823Z,39.40
2022-10-15T17:34:32.360Z,39.40
2022-10-15T17:37:00.454Z,39.40
2022-10-15T17:39:28.831Z,39.30
2022-10-15T17:41:56.924Z,39.30
2022-10-15T17:44:25.215Z,39.40
2022-10-15T17:46:53.901Z,39.70
2022-10-15T17:49:21.997Z,39.50
2022-10-15T17:51:51.480Z,39.50
2022-10-15T17:54:19.759Z,39.00
2022-10-15T17:56:48.606Z,39.50
2022-10-15T17:59:16.754Z,39.40
2022-10-15T18:02:01.060Z,38.70
2022-10-15T18:04:30.648Z,39.40
2022-10-15T18:07:00.075Z,39.80
2022-10-15T18:09:29.106Z,39.10
2022-10-15T18:11:58.362Z,39.60
2022-10-15T18:14:26.413Z,39.60
2022-10-15T18:16:54.632Z,39.70
2022-10-15T18:19:22.854Z,40.40
2022-10-15T18:21:50.897Z,39.40
2022-10-15T18:24:21.997Z,39.30
2022-10-15T18:26:50.842Z,39.80
2022-10-15T18:29:19.663Z,39.20
2022-10-15T18:31:49.470Z,39.60
2022-10-15T18:34:19.302Z,39.40
2022-10-15T18:36:47.305Z,39.20
2022-10-15T18:39:15.428Z,39.70
2022-10-15T18:44:21.367Z,39.40
2022-10-15T18:46:50.218Z,40.10
2022-10-15T18:49:20.617Z,39.60
2022-10-15T18:51:51.491Z,39.70
2022-10-15T18:54:20.643Z,39.60
2022-10-15T18:56:50.981Z,39.30
2022-10-15T18:59:19.035Z,39.70
2022-10-15T19:01:49.212Z,40.10
2022-10-15T19:04:19.136Z,39.70
2022-10-15T19:06:50.502Z,39.40
2022-10-15T19:09:21.224Z,39.60
2022-10-15T19:11:53.712Z,40.00
2022-10-15T19:14:22.251Z,39.70
2022-10-15T19:16:51.764Z,40.20
2022-10-15T19:19:22.733Z,40.00
2022-10-15T19:21:52.554Z,40.00
2022-10-15T19:24:22.388Z,40.30
2022-10-15T19:26:53.072Z,39.90
2022-10-15T19:29:21.936Z,39.50
2022-10-15T19:31:53.872Z,39.80
2022-10-15T19:34:23.182Z,40.20
2022-10-15T19:36:51.609Z,39.30
2022-10-15T19:39:22.008Z,39.70
2022-10-15T19:41:53.171Z,39.90
2022-10-15T19:44:25.472Z,39.80
2022-10-15T19:46:55.095Z,40.00
2022-10-15T19:49:23.122Z,40.10
2022-10-15T19:51:51.604Z,40.00
2022-10-15T19:54:19.706Z,40.00
2022-10-15T19:56:47.756Z,39.90
2022-10-15T19:59:18.122Z,39.90
2022-10-15T20:01:46.254Z,39.40
2022-10-15T20:04:14.333Z,39.60
2022-10-15T20:06:42.410Z,40.40
2022-10-15T20:09:10.595Z,40.20
2022-10-15T20:11:39.033Z,39.90
2022-10-15T20:14:07.481Z,39.70
2022-10-15T20:16:36.805Z,40.20
2022-10-15T20:19:05.656Z,39.90
2022-10-15T20:21:34.172Z,39.70
2022-10-15T20:24:04.503Z,40.10
2022-10-15T20:26:33.440Z,40.00
2022-10-15T20:29:01.997Z,39.90
2022-10-15T20:31:32.950Z,39.80
2022-10-15T20:34:03.368Z,39.80
2022-10-15T20:36:31.423Z,39.50
2022-10-15T20:39:01.050Z,39.70
2022-10-15T20:41:29.924Z,40.20
2022-10-15T20:43:58.643Z,40.30
2022-10-15T20:46:31.525Z,39.70
2022-10-15T20:49:07.804Z,40.20
2022-10-15T20:51:39.379Z,39.90
2022-10-15T20:54:08.248Z,39.90
2022-10-15T20:56:36.593Z,40.10
2022-10-15T20:59:05.233Z,40.20
2022-10-15T21:01:34.404Z,40.40
2022-10-15T21:04:04.315Z,40.20
2022-10-15T21:06:32.599Z,40.40
2022-10-15T21:09:00.737Z,40.30
2022-10-15T21:11:28.853Z,39.80
2022-10-15T21:13:57.102Z,40.10
2022-10-15T21:16:28.229Z,40.20
2022-10-15T21:18:56.847Z,40.10
2022-10-15T21:21:26.299Z,40.20
2022-10-15T21:23:54.538Z,39.70
2022-10-15T21:26:23.175Z,40.30
2022-10-15T21:28:56.314Z,40.30
2022-10-15T21:31:24.776Z,40.20
2022-10-15T21:33:53.357Z,39.80
2022-10-15T21:36:24.906Z,40.30
2022-10-15T21:38:56.636Z,40.30
2022-10-15T21:41:26.555Z,40.00
2022-10-15T21:43:54.907Z,39.70
2022-10-15T21:46:23.443Z,40.20
2022-10-15T21:48:53.417Z,39.80
2022-10-15T21:51:25.118Z,40.20
2022-10-15T21:53:55.146Z,40.00
2022-10-15T21:56:24.171Z,40.00
2022-10-15T21:58:54.388Z,40.40
2022-10-15T22:01:25.450Z,39.60
2022-10-15T22:03:59.086Z,40.40
2022-10-15T22:06:27.135Z,40.40
2022-10-15T22:08:57.347Z,39.80
2022-10-15T22:11:27.591Z,40.10
2022-10-15T22:13:58.353Z,40.40
2022-10-15T22:16:28.666Z,40.40
2022-10-15T22:18:57.956Z,40.30
2022-10-15T22:21:28.437Z,40.20
2022-10-15T22:24:00.808Z,40.00
2022-10-15T22:26:32.458Z,40.20
2022-10-15T22:29:03.242Z,40.00
2022-10-15T22:31:31.523Z,40.10
2022-10-15T22:33:59.731Z,39.90
2022-10-15T22:36:30.303Z,40.20
2022-10-15T22:39:02.311Z,40.00
2022-10-15T22:41:32.783Z,39.50
2022-10-15T22:44:01.299Z,40.10
2022-10-15T22:46:32.472Z,39.70
2022-10-15T22:49:00.641Z,39.80
2022-10-15T22:51:29.424Z,39.50
2022-10-15T22:54:00.307Z,40.00
2022-10-15T22:56:29.619Z,39.80
2022-10-15T22:58:59.556Z,40.50
2022-10-15T23:01:29.783Z,39.70
2022-10-15T23:04:01.408Z,40.10
2022-10-15T23:06:30.508Z,40.20
2022-10-15T23:09:00.322Z,39.80
2022-10-15T23:11:30.909Z,39.90
2022-10-15T23:14:01.350Z,39.90
2022-10-15T23:16:32.259Z,39.60
2022-10-15T23:19:03.202Z,40.00
2022-10-15T23:21:34.985Z,40.00
2022-10-15T23:24:05.639Z,39.80
2022-10-15T23:26:33.896Z,40.00
2022-10-15T23:29:04.533Z,40.10
2022-10-15T23:31:35.338Z,40.00
2022-10-15T23:34:05.492Z,39.90
2022-10-15T23:36:34.885Z,39.40
2022-10-15T23:39:06.476Z,39.90
2022-10-15T23:41:35.029Z,39.40
2022-10-15T23:44:03.262Z,39.90
2022-10-15T23:46:31.378Z,39.20
2022-10-15T23:48:59.413Z,39.70
2022-10-15T23:51:29.832Z,39.10
2022-10-15T23:54:00.376Z,39.40
2022-10-15T23:56:30.946Z,39.60
2022-10-15T23:59:01.581Z,38.90
